createdAt,value
2023-02-24T00:04:51.837Z,3.43
2023-02-24T00:09:54.007Z,2.93
2023-02-24T00:14:55.965Z,3.07
2023-02-24T00:19:58.000Z,3.30
2023-02-24T00:25:02.555Z,3.13
2023-02-24T00:30:06.241Z,3.80
2023-02-24T00:35:09.132Z,2.93
2023-02-24T00:40:12.076Z,2.60
2023-02-24T00:45:16.626Z,3.40
2023-02-24T00:50:18.994Z,3.60
2023-02-24T00:55:23.197Z,3.13
2023-02-24T01:00:25.247Z,4.33
2023-02-24T01:05:29.811Z,3.77
2023-02-24T01:10:34.409Z,3.43
2023-02-24T01:15:36.485Z,3.60
2023-02-24T01:20:39.702Z,3.37
2023-02-24T01:25:47.352Z,4.83
2023-02-24T01:30:49.536Z,4.23
2023-02-24T01:35:51.604Z,3.47
2023-02-24T01:41:00.550Z,3.20
2023-02-24T01:46:02.537Z,4.37
2023-02-24T01:51:04.526Z,3.93
2023-02-24T01:56:07.257Z,3.53
2023-02-24T02:01:10.251Z,3.70
2023-02-24T02:06:13.355Z,4.10
2023-02-24T02:11:20.834Z,3.37
2023-02-24T02:17:08.706Z,2.80
2023-02-24T02:22:29.651Z,2.93
2023-02-24T02:27:45.340Z,2.67
2023-02-24T02:33:30.371Z,3.03
2023-02-24T02:39:03.318Z,2.77
2023-02-24T02:44:13.649Z,3.40
2023-02-24T02:49:21.884Z,2.70
2023-02-24T02:54:33.668Z,3.00
2023-02-24T02:59:41.602Z,2.60
2023-02-24T03:04:52.600Z,2.80
2023-02-24T03:10:00.979Z,3.73
2023-02-24T03:15:10.602Z,2.90
2023-02-24T03:20:23.456Z,2.40
2023-02-24T03:25:29.221Z,2.57
2023-02-24T03:30:40.069Z,2.87
2023-02-24T03:35:44.024Z,2.57
2023-02-24T03:40:47.285Z,3.37
2023-02-24T03:45:58.473Z,2.87
2023-02-24T03:51:01.121Z,2.97
2023-02-24T03:56:45.876Z,4.53
2023-02-24T04:01:58.060Z,2.87
2023-02-24T04:07:26.602Z,2.93
2023-02-24T04:12:47.815Z,2.53
2023-02-24T04:18:02.833Z,2.80
2023-02-24T04:23:17.787Z,2.47
2023-02-24T04:28:23.389Z,3.07
2023-02-24T04:33:26.534Z,3.00
2023-02-24T04:38:29.133Z,2.97
2023-02-24T04:43:31.095Z,3.03
2023-02-24T04:48:33.979Z,3.00
2023-02-24T04:53:37.999Z,2.17
2023-02-24T04:58:41.171Z,3.73
2023-02-24T05:03:43.311Z,2.97
2023-02-24T05:08:45.274Z,3.43
2023-02-24T05:13:47.530Z,3.03
2023-02-24T05:18:49.545Z,3.17
2023-02-24T05:23:53.180Z,2.57
2023-02-24T05:28:56.811Z,2.67
2023-02-24T05:34:02.963Z,3.00
2023-02-24T05:39:09.529Z,2.37
2023-02-24T05:44:17.650Z,2.97
2023-02-24T05:49:27.438Z,3.70
2023-02-24T05:54:35.983Z,4.47
2023-02-24T05:59:40.067Z,3.33
2023-02-24T06:04:51.165Z,3.43
2023-02-24T06:09:58.576Z,3.13
2023-02-24T06:15:00.446Z,3.70
2023-02-24T06:20:13.049Z,3.43
2023-02-24T06:25:14.971Z,2.90
2023-02-24T06:30:18.433Z,3.03
2023-02-24T06:35:21.296Z,3.30
2023-02-24T06:40:23.502Z,3.63
2023-02-24T06:45:26.327Z,3.67
2023-02-24T06:50:28.816Z,2.97
2023-02-24T06:55:30.608Z,2.70
2023-02-24T07:00:38.631Z,2.80
2023-02-24T07:05:42.518Z,2.63
2023-02-24T07:10:44.695Z,3.00
2023-02-24T07:15:49.546Z,3.27
2023-02-24T07:20:51.779Z,3.83
2023-02-24T07:25:53.601Z,3.73
2023-02-24T07:30:56.066Z,3.20
2023-02-24T07:35:58.086Z,2.97
2023-02-24T07:41:00.148Z,3.23
2023-02-24T07:46:14.594Z,2.70
2023-02-24T07:51:19.483Z,3.07
2023-02-24T07:56:27.092Z,3.27
2023-02-24T08:01:39.051Z,2.90
2023-02-24T08:06:47.956Z,3.23
2023-02-24T08:11:52.740Z,2.73
2023-02-24T08:16:59.403Z,2.70
2023-02-24T08:22:27.668Z,2.43
2023-02-24T08:27:30.394Z,1.93
2023-02-24T08:32:37.284Z,2.00
2023-02-24T08:37:47.136Z,2.43
2023-02-24T08:42:50.232Z,2.23
2023-02-24T08:47:54.507Z,2.20
2023-02-24T08:52:57.957Z,1.63
2023-02-24T08:58:03.227Z,2.07
2023-02-24T09:03:08.265Z,1.50
2023-02-24T09:08:10.148Z,2.00
2023-02-24T09:13:14.889Z,1.40
2023-02-24T09:18:16.740Z,1.20
2023-02-24T09:23:29.746Z,1.50
2023-02-24T09:28:48.445Z,1.80
2023-02-24T09:33:54.200Z,1.70
2023-02-24T09:38:59.289Z,2.00
2023-02-24T09:44:18.303Z,1.53
2023-02-24T09:49:40.293Z,2.10
2023-02-24T09:55:05.056Z,2.20
2023-02-24T10:00:26.035Z,2.13
2023-02-24T10:05:38.539Z,1.73
2023-02-24T10:11:00.690Z,1.90
2023-02-24T10:16:07.154Z,2.00
2023-02-24T10:21:30.745Z,1.93
2023-02-24T10:26:54.468Z,1.63
2023-02-24T10:32:17.037Z,2.50
2023-02-24T10:37:28.678Z,2.20
2023-02-24T10:42:34.489Z,2.13
2023-02-24T10:47:36.594Z,1.97
2023-02-24T10:52:51.222Z,2.07
2023-02-24T10:58:06.307Z,2.17
2023-02-24T11:03:19.445Z,2.30
2023-02-24T11:08:37.060Z,3.07
2023-02-24T11:13:57.563Z,2.50
2023-02-24T11:18:59.831Z,2.47
2023-02-24T11:24:05.444Z,2.80
2023-02-24T11:29:35.045Z,2.20
2023-02-24T11:34:49.633Z,2.60
2023-02-24T11:40:07.515Z,2.20
2023-02-24T11:45:27.819Z,1.90
2023-02-24T11:50:43.739Z,2.30
2023-02-24T11:55:51.540Z,2.73
2023-02-24T12:01:07.012Z,2.00
2023-02-24T12:06:17.176Z,2.90
2023-02-24T12:11:43.201Z,2.13
2023-02-24T12:16:49.116Z,2.83
2023-02-24T12:22:07.711Z,2.70
2023-02-24T12:27:24.978Z,1.90
2023-02-24T12:32:57.522Z,2.70
2023-02-24T12:38:25.350Z,2.20
2023-02-24T12:43:30.486Z,2.93
2023-02-24T12:49:03.248Z,2.93
2023-02-24T12:54:12.368Z,2.73
2023-02-24T12:59:19.696Z,2.80
2023-02-24T13:05:04.495Z,3.00
2023-02-24T13:10:30.086Z,3.43
2023-02-24T13:15:32.318Z,3.37
2023-02-24T13:20:37.662Z,3.47
2023-02-24T13:25:39.583Z,3.20
2023-02-24T13:30:44.238Z,3.47
2023-02-24T13:35:49.147Z,3.17
2023-02-24T13:40:51.314Z,3.47
2023-02-24T13:46:00.200Z,3.80
2023-02-24T13:51:36.070Z,4.13
2023-02-24T13:57:16.880Z,4.20
2023-02-24T14:02:22.594Z,4.90
2023-02-24T14:07:28.651Z,5.30
2023-02-24T14:12:37.343Z,4.93
2023-02-24T14:17:39.369Z,4.40
2023-02-24T14:22:55.272Z,4.77
2023-02-24T14:27:57.924Z,5.13
2023-02-24T14:33:01.081Z,4.83
2023-02-24T14:38:04.910Z,5.30
2023-02-24T14:43:15.135Z,4.60
2023-02-24T14:48:28.876Z,5.47
2023-02-24T14:53:32.336Z,5.40
2023-02-24T14:58:45.030Z,5.00
2023-02-24T15:03:51.171Z,5.27
2023-02-24T15:09:01.537Z,5.47
2023-02-24T15:14:07.293Z,5.10
2023-02-24T15:19:38.114Z,6.00
2023-02-24T15:24:40.017Z,5.33
2023-02-24T15:29:44.224Z,6.30
2023-02-24T15:34:48.025Z,6.90
2023-02-24T15:39:52.301Z,6.77
2023-02-24T15:45:06.698Z,7.80
2023-02-24T15:50:10.239Z,8.50
2023-02-24T15:55:16.238Z,9.53
2023-02-24T16:00:21.630Z,10.03
2023-02-24T16:05:25.012Z,9.33
2023-02-24T16:10:29.788Z,11.23
2023-02-24T16:15:35.599Z,11.43
2023-02-24T16:20:39.921Z,10.67
2023-02-24T16:25:44.375Z,10.97
2023-02-24T16:30:48.001Z,10.43
2023-02-24T16:35:53.272Z,12.13
2023-02-24T16:40:56.320Z,11.73
2023-02-24T16:46:03.997Z,13.97
2023-02-24T16:51:07.758Z,11.40
2023-02-24T16:56:09.934Z,11.30
2023-02-24T17:01:19.137Z,10.23
2023-02-24T17:06:23.896Z,5.97
2023-02-24T17:11:28.036Z,5.47
2023-02-24T17:16:30.033Z,3.97
2023-02-24T17:21:32.050Z,2.80
2023-02-24T17:26:34.015Z,3.43
2023-02-24T17:31:36.206Z,2.33
2023-02-24T17:36:38.204Z,2.57
2023-02-24T17:41:40.192Z,2.93
2023-02-24T17:46:42.054Z,2.33
2023-02-24T17:51:44.054Z,2.47
2023-02-24T17:56:46.022Z,2.90
2023-02-24T18:01:47.998Z,2.77
2023-02-24T18:06:50.585Z,3.97
2023-02-24T18:11:52.938Z,3.17
2023-02-24T18:16:54.811Z,3.50
2023-02-24T18:21:56.626Z,2.70
2023-02-24T18:26:58.478Z,3.37
2023-02-24T18:32:00.734Z,4.10
2023-02-24T18:37:02.864Z,3.17
2023-02-24T18:42:04.826Z,2.90
2023-02-24T18:47:09.474Z,2.70
2023-02-24T18:52:12.952Z,2.47
2023-02-24T18:57:14.954Z,2.53
2023-02-24T19:02:17.729Z,1.87
2023-02-24T19:07:19.809Z,2.30
2023-02-24T19:12:21.690Z,1.90
2023-02-24T19:17:23.880Z,2.43
2023-02-24T19:22:25.769Z,2.07
2023-02-24T19:27:28.598Z,2.40
2023-02-24T19:32:30.925Z,2.20
2023-02-24T19:37:33.947Z,2.27
2023-02-24T19:42:35.830Z,2.20
2023-02-24T19:47:37.675Z,2.13
2023-02-24T19:52:39.837Z,2.50
2023-02-24T19:57:41.895Z,2.17
2023-02-24T20:02:43.690Z,2.27
2023-02-24T20:07:46.141Z,2.73
2023-02-24T20:12:48.157Z,2.23
2023-02-24T20:17:50.626Z,2.13
2023-02-24T20:22:52.531Z,2.07
2023-02-24T20:27:54.341Z,2.40
2023-02-24T20:32:56.369Z,1.87
2023-02-24T20:37:58.391Z,1.80
2023-02-24T20:43:00.762Z,2.10
2023-02-24T20:48:03.210Z,1.90
2023-02-24T20:53:05.068Z,1.73
2023-02-24T20:58:06.905Z,1.87
2023-02-24T21:03:12.044Z,1.40
2023-02-24T21:08:14.029Z,1.37
2023-02-24T21:13:18.121Z,1.57
2023-02-24T21:18:21.818Z,1.83
2023-02-24T21:23:24.158Z,2.07
2023-02-24T21:28:26.741Z,1.87
2023-02-24T21:33:28.819Z,2.43
2023-02-24T21:38:36.752Z,1.83
2023-02-24T21:43:39.095Z,2.40
2023-02-24T21:48:41.815Z,2.33
2023-02-24T21:53:44.582Z,2.23
2023-02-24T21:58:51.663Z,1.80
2023-02-24T22:03:55.561Z,2.10
2023-02-24T22:08:58.105Z,1.97
2023-02-24T22:14:00.112Z,2.50
2023-02-24T22:19:02.064Z,1.93
2023-02-24T22:24:04.231Z,2.00
2023-02-24T22:29:06.644Z,2.77
2023-02-24T22:34:09.145Z,3.17
2023-02-24T22:39:16.355Z,3.20
2023-02-24T22:44:21.204Z,4.27
2023-02-24T22:49:23.282Z,3.73
2023-02-24T22:54:25.112Z,3.37
2023-02-24T22:59:26.997Z,3.20
2023-02-24T23:04:29.527Z,3.33
2023-02-24T23:09:31.365Z,2.77
2023-02-24T23:14:33.415Z,3.40
2023-02-24T23:19:35.266Z,2.77
2023-02-24T23:24:37.275Z,2.77
2023-02-24T23:29:39.163Z,2.97
2023-02-24T23:34:41.160Z,2.90
2023-02-24T23:39:43.233Z,2.30
2023-02-24T23:44:46.152Z,1.93
2023-02-24T23:49:48.807Z,2.13
2023-02-24T23:54:52.523Z,1.83
2023-02-24T23:59:54.834Z,2.87
